sensor_id;sensor_type;location;lat;lon;timestamp;P1;P4;P2;P0;N10;N4;N25;N1;N05;TS
70299;SPS30;57704;51.112;5.878;2023-02-02T00:02:00;3.65;3.42;2.99;2.33;18.62;18.60;18.50;17.95;15.03;0.64
70299;SPS30;57704;51.112;5.878;2023-02-02T00:04:28;4.03;3.77;3.27;2.52;20.14;20.11;20.00;19.36;16.14;0.65
70299;SPS30;57704;51.112;5.878;2023-02-02T00:06:58;4.14;3.88;3.39;2.64;21.10;21.08;20.96;20.33;17.02;0.64
70299;SPS30;57704;51.112;5.878;2023-02-02T00:09:25;3.94;3.70;3.22;2.50;20.03;20.01;19.90;19.29;16.15;0.64
70299;SPS30;57704;51.112;5.878;2023-02-02T00:11:57;3.63;3.40;2.95;2.27;18.18;18.16;18.06;17.48;14.59;0.64
70299;SPS30;57704;51.112;5.878;2023-02-02T00:14:25;3.25;3.04;2.64;2.04;16.30;16.28;16.19;15.67;13.08;0.64
70299;SPS30;57704;51.112;5.878;2023-02-02T00:16:52;3.45;3.24;2.81;2.18;17.40;17.38;17.29;16.74;13.99;0.64
70299;SPS30;57704;51.112;5.878;2023-02-02T00:19:22;3.40;3.19;2.77;2.15;17.22;17.20;17.11;16.58;13.87;0.63
70299;SPS30;57704;51.112;5.878;2023-02-02T00:21:55;3.72;3.48;3.01;2.31;18.48;18.45;18.35;17.75;14.78;0.64
70299;SPS30;57704;51.112;5.878;2023-02-02T00:24:21;3.65;3.40;2.93;2.24;17.89;17.87;17.76;17.16;14.25;0.64
70299;SPS30;57704;51.112;5.878;2023-02-02T00:26:50;3.71;3.43;2.89;2.12;16.94;16.91;16.79;16.11;13.17;0.67
70299;SPS30;57704;51.112;5.878;2023-02-02T00:29:23;3.74;3.46;2.92;2.15;17.21;17.18;17.06;16.38;13.42;0.66
70299;SPS30;57704;51.112;5.878;2023-02-02T00:31:50;3.53;3.29;2.83;2.15;17.20;17.18;17.08;16.49;13.68;0.64
70299;SPS30;57704;51.112;5.878;2023-02-02T00:34:18;3.41;3.19;2.76;2.13;17.03;17.01;16.92;16.37;13.66;0.64
70299;SPS30;57704;51.112;5.878;2023-02-02T00:36:47;4.21;3.93;3.37;2.56;20.47;20.45;20.32;19.62;16.27;0.65
70299;SPS30;57704;51.112;5.878;2023-02-02T00:39:16;3.57;3.34;2.87;2.19;17.49;17.47;17.36;16.77;13.92;0.63
70299;SPS30;57704;51.112;5.878;2023-02-02T00:41:46;3.19;2.98;2.58;1.98;15.86;15.84;15.75;15.23;12.69;0.62
70299;SPS30;57704;51.112;5.878;2023-02-02T00:44:13;3.57;3.32;2.84;2.14;17.15;17.13;17.02;16.41;13.57;0.63
70299;SPS30;57704;51.112;5.878;2023-02-02T00:46:58;3.78;3.53;3.03;2.30;18.42;18.40;18.28;17.65;14.64;0.64
70299;SPS30;57704;51.112;5.878;2023-02-02T00:49:24;4.24;3.94;3.35;2.49;19.94;19.91;19.78;19.02;15.66;0.65
70299;SPS30;57704;51.112;5.878;2023-02-02T00:51:52;3.77;3.49;2.93;2.14;17.17;17.15;17.02;16.33;13.34;0.66
70299;SPS30;57704;51.112;5.878;2023-02-02T00:54:18;3.79;3.51;2.96;2.17;17.34;17.32;17.19;16.49;13.50;0.66
70299;SPS30;57704;51.112;5.878;2023-02-02T00:56:44;3.31;3.06;2.57;1.88;15.04;15.02;14.91;14.30;11.68;0.67
70299;SPS30;57704;51.112;5.878;2023-02-02T00:59:10;3.81;3.52;2.96;2.16;17.29;17.27;17.14;16.43;13.42;0.69
70299;SPS30;57704;51.112;5.878;2023-02-02T01:01:37;3.77;3.47;2.90;2.09;16.72;16.70;16.57;15.85;12.87;0.70
70299;SPS30;57704;51.112;5.878;2023-02-02T01:04:03;4.35;4.00;3.31;2.35;18.84;18.81;18.66;17.80;14.37;0.71
70299;SPS30;57704;51.112;5.878;2023-02-02T01:06:29;3.87;3.57;2.99;2.17;17.37;17.35;17.21;16.48;13.43;0.69
70299;SPS30;57704;51.112;5.878;2023-02-02T01:08:56;3.72;3.45;2.92;2.15;17.24;17.21;17.09;16.42;13.47;0.67
70299;SPS30;57704;51.112;5.878;2023-02-02T01:11:22;4.00;3.72;3.18;2.38;19.07;19.05;18.92;18.23;15.06;0.65
70299;SPS30;57704;51.112;5.878;2023-02-02T01:13:50;3.81;3.54;3.03;2.28;18.26;18.23;18.12;17.47;14.44;0.65
70299;SPS30;57704;51.112;5.878;2023-02-02T01:16:16;3.73;3.47;2.97;2.24;17.95;17.93;17.82;17.18;14.22;0.66
70299;SPS30;57704;51.112;5.878;2023-02-02T01:18:42;3.95;3.67;3.12;2.32;18.56;18.54;18.41;17.72;14.58;0.68
70299;SPS30;57704;51.112;5.878;2023-02-02T01:21:09;3.85;3.56;3.00;2.19;17.52;17.50;17.37;16.65;13.61;0.69
70299;SPS30;57704;51.112;5.878;2023-02-02T01:23:37;3.94;3.67;3.13;2.35;18.85;18.82;18.70;18.02;14.90;0.67
70299;SPS30;57704;51.112;5.878;2023-02-02T01:26:05;3.79;3.53;3.02;2.27;18.18;18.16;18.04;17.39;14.38;0.66
70299;SPS30;57704;51.112;5.878;2023-02-02T01:28:34;3.54;3.28;2.78;2.07;16.54;16.52;16.40;15.77;12.97;0.68
70299;SPS30;57704;51.112;5.878;2023-02-02T01:31:06;3.79;3.51;2.97;2.20;17.59;17.56;17.44;16.76;13.76;0.68
70299;SPS30;57704;51.112;5.878;2023-02-02T01:33:35;3.74;3.47;2.93;2.15;17.22;17.19;17.07;16.39;13.42;0.68
70299;SPS30;57704;51.112;5.878;2023-02-02T01:36:06;3.55;3.30;2.81;2.10;16.81;16.78;16.67;16.05;13.23;0.67
70299;SPS30;57704;51.112;5.878;2023-02-02T01:38:36;3.59;3.33;2.82;2.09;16.72;16.70;16.58;15.94;13.09;0.68
70299;SPS30;57704;51.112;5.878;2023-02-02T01:41:03;3.83;3.54;2.97;2.15;17.25;17.23;17.10;16.38;13.35;0.68
70299;SPS30;57704;51.112;5.878;2023-02-02T01:48:38;3.88;3.59;3.03;2.22;17.76;17.74;17.61;16.89;13.83;0.69
70299;SPS30;57704;51.112;5.878;2023-02-02T01:51:10;4.26;3.94;3.31;2.42;19.38;19.35;19.21;18.42;15.06;0.69
70299;SPS30;57704;51.112;5.878;2023-02-02T01:53:42;3.57;3.29;2.74;1.97;15.77;15.74;15.62;14.93;12.11;0.71
70299;SPS30;57704;51.112;5.878;2023-02-02T01:56:13;3.46;3.20;2.69;1.97;15.75;15.73;15.62;14.97;12.24;0.69
70299;SPS30;57704;51.112;5.878;2023-02-02T01:58:47;4.01;3.70;3.09;2.23;17.89;17.86;17.73;16.96;13.80;0.70
70299;SPS30;57704;51.112;5.878;2023-02-02T02:01:16;3.94;3.64;3.04;2.20;17.65;17.63;17.49;16.75;13.64;0.69
70299;SPS30;57704;51.112;5.878;2023-02-02T02:03:43;4.08;3.78;3.18;2.34;18.72;18.70;18.56;17.82;14.59;0.68
70299;SPS30;57704;51.112;5.878;2023-02-02T02:06:13;3.59;3.33;2.83;2.10;16.84;16.81;16.70;16.06;13.22;0.65
70299;SPS30;57704;51.112;5.878;2023-02-02T02:08:51;3.72;3.46;2.95;2.21;17.68;17.65;17.54;16.89;13.94;0.65
70299;SPS30;57704;51.112;5.878;2023-02-02T02:11:28;3.61;3.36;2.86;2.13;17.05;17.03;16.91;16.28;13.42;0.64
70299;SPS30;57704;51.112;5.878;2023-02-02T02:13:57;3.78;3.50;2.94;2.14;17.17;17.14;17.01;16.31;13.32;0.65
70299;SPS30;57704;51.112;5.878;2023-02-02T02:28:26;4.27;3.93;3.26;2.32;18.59;18.56;18.41;17.56;14.20;0.69
70299;SPS30;57704;51.112;5.878;2023-02-02T02:30:54;3.62;3.36;2.86;2.13;17.08;17.06;16.94;16.31;13.44;0.67
70299;SPS30;57704;51.112;5.878;2023-02-02T02:39:11;4.01;3.70;3.11;2.27;18.17;18.14;18.01;17.26;14.09;0.70
70299;SPS30;57704;51.112;5.878;2023-02-02T02:41:49;4.36;4.01;3.34;2.39;19.14;19.11;18.96;18.11;14.68;0.70
70299;SPS30;57704;51.112;5.878;2023-02-02T02:44:23;4.00;3.66;3.01;2.10;16.79;16.76;16.62;15.80;12.66;0.71
70299;SPS30;57704;51.112;5.878;2023-02-02T02:46:52;3.81;3.50;2.89;2.03;16.30;16.27;16.13;15.36;12.36;0.70
70299;SPS30;57704;51.112;5.878;2023-02-02T02:49:22;4.00;3.70;3.11;2.27;18.17;18.15;18.01;17.27;14.11;0.68
70299;SPS30;57704;51.112;5.878;2023-02-02T02:51:49;3.45;3.21;2.73;2.03;16.25;16.23;16.12;15.51;12.78;0.66
70299;SPS30;57704;51.112;5.878;2023-02-02T02:54:28;3.77;3.50;2.97;2.20;17.58;17.56;17.44;16.76;13.77;0.68
70299;SPS30;57704;51.112;5.878;2023-02-02T03:02:32;3.92;3.63;3.05;2.22;17.81;17.79;17.65;16.93;13.82;0.67
70299;SPS30;57704;51.112;5.878;2023-02-02T03:08:06;3.82;3.50;2.89;2.02;16.21;16.18;16.04;15.27;12.26;0.71
70299;SPS30;57704;51.112;5.878;2023-02-02T03:10:39;3.71;3.42;2.84;2.04;16.32;16.30;16.17;15.45;12.52;0.71
70299;SPS30;57704;51.112;5.878;2023-02-02T03:13:10;3.72;3.43;2.85;2.04;16.31;16.28;16.15;15.43;12.49;0.71
70299;SPS30;57704;51.112;5.878;2023-02-02T03:15:39;3.88;3.58;3.00;2.18;17.49;17.47;17.33;16.61;13.54;0.68
70299;SPS30;57704;51.112;5.878;2023-02-02T03:18:07;3.43;3.19;2.73;2.05;16.38;16.36;16.26;15.67;12.94;0.66
70299;SPS30;57704;51.112;5.878;2023-02-02T03:20:34;3.40;3.16;2.70;2.04;16.29;16.27;16.17;15.59;12.89;0.66
70299;SPS30;57704;51.112;5.878;2023-02-02T03:23:00;3.14;2.90;2.43;1.76;14.13;14.11;14.00;13.41;10.94;0.69
70299;SPS30;57704;51.112;5.878;2023-02-02T03:25:26;4.02;3.72;3.12;2.27;18.20;18.17;18.04;17.29;14.11;0.68
70299;SPS30;57704;51.112;5.878;2023-02-02T03:27:53;3.68;3.40;2.87;2.10;16.84;16.82;16.70;16.02;13.11;0.67
70299;SPS30;57704;51.112;5.878;2023-02-02T03:30:19;3.94;3.63;3.03;2.18;17.43;17.40;17.27;16.51;13.40;0.68
70299;SPS30;57704;51.112;5.878;2023-02-02T03:32:47;3.99;3.65;2.99;2.08;16.67;16.64;16.49;15.66;12.53;0.70
70299;SPS30;57704;51.112;5.878;2023-02-02T03:35:16;4.02;3.68;3.02;2.10;16.79;16.76;16.61;15.77;12.61;0.71
70299;SPS30;57704;51.112;5.878;2023-02-02T03:37:45;3.84;3.53;2.91;2.06;16.48;16.45;16.31;15.54;12.52;0.70
70299;SPS30;57704;51.112;5.878;2023-02-02T03:40:12;3.75;3.44;2.84;2.00;16.01;15.98;15.85;15.09;12.14;0.70
70299;SPS30;57704;51.112;5.878;2023-02-02T03:42:39;3.61;3.30;2.70;1.87;14.98;14.95;14.82;14.06;11.22;0.73
70299;SPS30;57704;51.112;5.878;2023-02-02T03:45:05;4.19;3.81;3.08;2.07;16.62;16.59;16.42;15.51;12.23;0.75
70299;SPS30;57704;51.112;5.878;2023-02-02T03:47:32;4.28;3.89;3.15;2.13;17.05;17.02;16.85;15.92;12.58;0.76
70299;SPS30;57704;51.112;5.878;2023-02-02T03:50:01;4.42;4.03;3.28;2.25;17.99;17.96;17.79;16.85;13.39;0.75
70299;SPS30;57704;51.112;5.878;2023-02-02T03:52:28;4.19;3.83;3.12;2.15;17.23;17.20;17.04;16.16;12.88;0.73
70299;SPS30;57704;51.112;5.878;2023-02-02T03:54:54;3.82;3.49;2.84;1.95;15.60;15.57;15.43;14.62;11.62;0.74
70299;SPS30;57704;51.112;5.878;2023-02-02T03:57:20;4.04;3.68;2.97;2.01;16.10;16.07;15.91;15.03;11.87;0.74
70299;SPS30;57704;51.112;5.878;2023-02-02T03:59:46;4.24;3.86;3.10;2.08;16.65;16.62;16.45;15.51;12.20;0.75
70299;SPS30;57704;51.112;5.878;2023-02-02T04:02:12;3.73;3.40;2.74;1.85;14.83;14.80;14.66;13.84;10.92;0.75
70299;SPS30;57704;51.112;5.878;2023-02-02T04:04:40;4.57;4.17;3.39;2.31;18.50;18.46;18.29;17.30;13.72;0.74
70299;SPS30;57704;51.112;5.878;2023-02-02T04:07:07;4.76;4.33;3.49;2.34;18.79;18.76;18.57;17.52;13.80;0.75
70299;SPS30;57704;51.112;5.878;2023-02-02T04:09:33;4.06;3.70;3.01;2.06;16.52;16.49;16.33;15.47;12.29;0.73
70299;SPS30;57704;51.112;5.878;2023-02-02T04:12:02;3.79;3.48;2.89;2.06;16.48;16.45;16.32;15.57;12.59;0.68
70299;SPS30;57704;51.112;5.878;2023-02-02T04:14:29;3.79;3.50;2.94;2.14;17.15;17.13;17.00;16.29;13.30;0.68
70299;SPS30;57704;51.112;5.878;2023-02-02T04:16:55;4.38;4.04;3.36;2.40;19.25;19.23;19.07;18.22;14.76;0.68
70299;SPS30;57704;51.112;5.878;2023-02-02T04:19:21;4.09;3.77;3.13;2.22;17.82;17.79;17.64;16.84;13.61;0.68
70299;SPS30;57704;51.112;5.878;2023-02-02T04:21:47;3.97;3.65;3.03;2.17;17.34;17.31;17.17;16.40;13.27;0.69
70299;SPS30;57704;51.112;5.878;2023-02-02T04:24:14;3.69;3.41;2.85;2.06;16.51;16.49;16.36;15.66;12.74;0.67
70299;SPS30;57704;51.112;5.878;2023-02-02T04:26:40;3.36;3.12;2.64;1.96;15.68;15.66;15.55;14.95;12.29;0.66
70299;SPS30;57704;51.112;5.878;2023-02-02T04:29:07;3.85;3.56;2.98;2.17;17.35;17.32;17.19;16.47;13.42;0.67
70299;SPS30;57704;51.112;5.878;2023-02-02T04:31:33;3.76;3.46;2.89;2.07;16.61;16.59;16.46;15.73;12.77;0.69
70299;SPS30;57704;51.112;5.878;2023-02-02T04:34:00;4.46;4.09;3.37;2.37;19.02;18.98;18.82;17.92;14.42;0.71
70299;SPS30;57704;51.112;5.878;2023-02-02T04:36:26;4.18;3.84;3.17;2.23;17.87;17.84;17.69;16.85;13.56;0.71
70299;SPS30;57704;51.112;5.878;2023-02-02T04:38:53;4.01;3.69;3.08;2.22;17.77;17.75;17.61;16.84;13.68;0.71
70299;SPS30;57704;51.112;5.878;2023-02-02T04:41:20;4.30;3.99;3.36;2.47;19.79;19.76;19.62;18.84;15.43;0.68
70299;SPS30;57704;51.112;5.878;2023-02-02T04:43:48;3.82;3.54;3.00;2.22;17.77;17.74;17.62;16.94;13.91;0.68
70299;SPS30;57704;51.112;5.878;2023-02-02T04:46:14;3.86;3.59;3.06;2.29;18.32;18.29;18.17;17.50;14.44;0.67
70299;SPS30;57704;51.112;5.878;2023-02-02T04:48:41;4.18;3.88;3.30;2.45;19.64;19.61;19.48;18.74;15.43;0.66
70299;SPS30;57704;51.112;5.878;2023-02-02T04:51:11;3.63;3.36;2.83;2.07;16.61;16.59;16.47;15.80;12.93;0.68
70299;SPS30;57704;51.112;5.878;2023-02-02T04:53:39;4.17;3.84;3.21;2.30;18.45;18.42;18.28;17.48;14.19;0.69
70299;SPS30;57704;51.112;5.878;2023-02-02T04:56:08;4.25;3.92;3.27;2.34;18.78;18.75;18.60;17.78;14.42;0.69
70299;SPS30;57704;51.112;5.878;2023-02-02T04:58:37;4.44;4.07;3.34;2.32;18.62;18.59;18.43;17.51;14.03;0.71
70299;SPS30;57704;51.112;5.878;2023-02-02T05:01:10;4.15;3.83;3.19;2.29;18.37;18.34;18.19;17.39;14.12;0.67
70299;SPS30;57704;51.112;5.878;2023-02-02T05:03:39;4.07;3.79;3.25;2.45;19.58;19.56;19.44;18.74;15.51;0.63
70299;SPS30;57704;51.112;5.878;2023-02-02T05:06:07;3.61;3.38;2.94;2.28;18.27;18.25;18.14;17.58;14.70;0.62
70299;SPS30;57704;51.112;5.878;2023-02-02T05:08:33;4.00;3.75;3.26;2.53;20.26;20.24;20.13;19.51;16.31;0.63
70299;SPS30;57704;51.112;5.878;2023-02-02T05:11:00;3.73;3.51;3.08;2.43;19.42;19.40;19.31;18.76;15.78;0.63
70299;SPS30;57704;51.112;5.878;2023-02-02T05:13:32;4.15;3.90;3.40;2.65;21.17;21.14;21.03;20.39;17.07;0.64
70299;SPS30;57704;51.112;5.878;2023-02-02T05:15:59;3.34;3.14;2.75;2.15;17.22;17.20;17.11;16.60;13.93;0.63
70299;SPS30;57704;51.112;5.878;2023-02-02T05:18:25;3.95;3.70;3.23;2.51;20.07;20.05;19.94;19.33;16.18;0.64
70299;SPS30;57704;51.112;5.878;2023-02-02T05:20:51;4.12;3.86;3.35;2.59;20.73;20.70;20.59;19.94;16.65;0.64
70299;SPS30;57704;51.112;5.878;2023-02-02T05:23:19;3.65;3.43;2.99;2.32;18.56;18.54;18.44;17.87;14.96;0.65
70299;SPS30;57704;51.112;5.878;2023-02-02T05:25:52;3.23;3.06;2.72;2.18;17.42;17.40;17.32;16.88;14.29;0.61
70299;SPS30;57704;51.112;5.878;2023-02-02T05:28:20;3.43;3.25;2.92;2.37;18.98;18.96;18.88;18.45;15.69;0.61
70299;SPS30;57704;51.112;5.878;2023-02-02T05:30:46;3.81;3.57;3.11;2.41;19.27;19.25;19.15;18.55;15.51;0.64
70299;SPS30;57704;51.112;5.878;2023-02-02T05:33:13;3.85;3.60;3.12;2.40;19.17;19.15;19.04;18.42;15.36;0.63
70299;SPS30;57704;51.112;5.878;2023-02-02T05:35:40;4.15;3.87;3.32;2.52;20.15;20.12;20.00;19.30;16.00;0.66
70299;SPS30;57704;51.112;5.878;2023-02-02T05:38:06;3.85;3.58;3.06;2.30;18.42;18.40;18.28;17.62;14.56;0.66
70299;SPS30;57704;51.112;5.878;2023-02-02T05:40:32;3.67;3.45;3.02;2.37;18.93;18.91;18.81;18.27;15.33;0.64
70299;SPS30;57704;51.112;5.878;2023-02-02T05:42:59;3.69;3.46;3.01;2.33;18.64;18.62;18.52;17.94;15.00;0.65
70299;SPS30;57704;51.112;5.878;2023-02-02T05:45:25;3.67;3.43;2.96;2.26;18.09;18.07;17.96;17.36;14.44;0.66
70299;SPS30;57704;51.112;5.878;2023-02-02T05:47:52;3.61;3.35;2.84;2.11;16.88;16.86;16.74;16.10;13.24;0.69
70299;SPS30;57704;51.112;5.878;2023-02-02T05:50:20;3.87;3.59;3.05;2.26;18.12;18.09;17.97;17.28;14.22;0.67
70299;SPS30;57704;51.112;5.878;2023-02-02T05:52:56;3.58;3.32;2.81;2.08;16.68;16.66;16.54;15.90;13.07;0.64
70299;SPS30;57704;51.112;5.878;2023-02-02T05:55:24;3.57;3.31;2.81;2.08;16.68;16.66;16.55;15.91;13.08;0.63
70299;SPS30;57704;51.112;5.878;2023-02-02T05:57:54;4.14;3.82;3.20;2.31;18.52;18.49;18.35;17.57;14.30;0.66
70299;SPS30;57704;51.112;5.878;2023-02-02T06:00:20;3.77;3.49;2.96;2.19;17.53;17.50;17.38;16.71;13.72;0.65
70299;SPS30;57704;51.112;5.878;2023-02-02T06:02:47;3.75;3.48;2.95;2.19;17.54;17.51;17.39;16.72;13.75;0.65
70299;SPS30;57704;51.112;5.878;2023-02-02T06:05:14;3.62;3.37;2.88;2.16;17.33;17.30;17.19;16.57;13.70;0.63
70299;SPS30;57704;51.112;5.878;2023-02-02T06:07:40;3.47;3.24;2.80;2.13;17.07;17.05;16.95;16.38;13.61;0.63
70299;SPS30;57704;51.112;5.878;2023-02-02T06:10:07;3.69;3.47;3.03;2.36;18.86;18.84;18.74;18.18;15.23;0.61
70299;SPS30;57704;51.112;5.878;2023-02-02T06:12:35;3.33;3.14;2.77;2.20;17.62;17.60;17.52;17.04;14.37;0.60
70299;SPS30;57704;51.112;5.878;2023-02-02T06:15:02;3.82;3.59;3.14;2.46;19.68;19.66;19.56;18.99;15.93;0.63
70299;SPS30;57704;51.112;5.878;2023-02-02T06:17:28;3.59;3.38;2.97;2.34;18.74;18.72;18.63;18.10;15.23;0.62
70299;SPS30;57704;51.112;5.878;2023-02-02T06:19:55;3.41;3.23;2.87;2.31;18.48;18.46;18.38;17.92;15.18;0.61
70299;SPS30;57704;51.112;5.878;2023-02-02T06:22:24;3.72;3.52;3.12;2.50;20.01;19.99;19.90;19.39;16.40;0.59
70299;SPS30;57704;51.112;5.878;2023-02-02T06:24:54;3.30;3.14;2.82;2.30;18.43;18.42;18.34;17.93;15.26;0.59
70299;SPS30;57704;51.112;5.878;2023-02-02T06:27:24;3.51;3.34;3.01;2.47;19.74;19.72;19.65;19.22;16.38;0.61
70299;SPS30;57704;51.112;5.878;2023-02-02T06:29:50;3.20;3.04;2.72;2.21;17.70;17.68;17.61;17.20;14.62;0.61
70299;SPS30;57704;51.112;5.878;2023-02-02T06:32:17;3.21;3.06;2.77;2.28;18.27;18.25;18.18;17.80;15.21;0.61
70299;SPS30;57704;51.112;5.878;2023-02-02T06:34:46;3.47;3.29;2.96;2.41;19.28;19.27;19.19;18.75;15.96;0.60
70299;SPS30;57704;51.112;5.878;2023-02-02T06:37:17;3.91;3.70;3.30;2.66;21.27;21.25;21.16;20.64;17.49;0.61
70299;SPS30;57704;51.112;5.878;2023-02-02T06:39:43;3.46;3.28;2.94;2.40;19.17;19.15;19.07;18.63;15.85;0.59
70299;SPS30;57704;51.112;5.878;2023-02-02T06:42:13;3.75;3.59;3.26;2.71;21.66;21.65;21.57;21.14;18.11;0.55
70299;SPS30;57704;51.112;5.878;2023-02-02T06:44:39;3.52;3.34;3.01;2.47;19.73;19.71;19.63;19.20;16.37;0.58
70299;SPS30;57704;51.112;5.878;2023-02-02T06:47:06;4.10;3.92;3.58;3.00;23.95;23.94;23.86;23.41;20.09;0.57
70299;SPS30;57704;51.112;5.878;2023-02-02T06:49:35;3.81;3.66;3.35;2.83;22.58;22.57;22.50;22.10;19.00;0.57
70299;SPS30;57704;51.112;5.878;2023-02-02T06:52:01;3.94;3.80;3.52;3.01;24.05;24.04;23.97;23.60;20.39;0.55
70299;SPS30;57704;51.112;5.878;2023-02-02T06:54:28;3.25;3.14;2.92;2.52;20.11;20.10;20.05;19.75;17.10;0.54
70299;SPS30;57704;51.112;5.878;2023-02-02T06:57:01;3.34;3.23;3.01;2.59;20.70;20.68;20.63;20.33;17.60;0.54
70299;SPS30;57704;51.112;5.878;2023-02-02T06:59:49;3.72;3.60;3.36;2.91;23.26;23.25;23.19;22.87;19.84;0.53
70299;SPS30;57704;51.112;5.878;2023-02-02T07:02:15;3.91;3.77;3.48;2.97;23.74;23.73;23.66;23.28;20.10;0.55
70299;SPS30;57704;51.112;5.878;2023-02-02T07:04:42;3.42;3.29;3.04;2.59;20.68;20.66;20.60;20.27;17.48;0.56
70299;SPS30;57704;51.112;5.878;2023-02-02T07:07:11;3.14;3.04;2.86;2.49;19.90;19.89;19.84;19.59;17.02;0.53
70299;SPS30;57704;51.112;5.878;2023-02-02T07:09:37;3.35;3.25;3.06;2.67;21.36;21.34;21.30;21.03;18.29;0.53
70299;SPS30;57704;51.112;5.878;2023-02-02T07:12:06;3.18;3.07;2.87;2.48;19.83;19.82;19.77;19.49;16.90;0.54
70299;SPS30;57704;51.112;5.878;2023-02-02T07:14:32;3.46;3.37;3.18;2.79;22.26;22.25;22.20;21.94;19.10;0.52
70299;SPS30;57704;51.112;5.878;2023-02-02T07:16:59;3.08;3.00;2.85;2.53;20.19;20.18;20.14;19.93;17.40;0.53
70299;SPS30;57704;51.112;5.878;2023-02-02T07:19:25;3.18;3.08;2.90;2.54;20.28;20.27;20.22;19.98;17.38;0.53
70299;SPS30;57704;51.112;5.878;2023-02-02T07:21:51;3.37;3.28;3.09;2.71;21.64;21.63;21.58;21.33;18.57;0.53
70299;SPS30;57704;51.112;5.878;2023-02-02T07:24:18;3.53;3.44;3.26;2.88;22.97;22.96;22.92;22.67;19.78;0.51
70299;SPS30;57704;51.112;5.878;2023-02-02T07:26:44;3.54;3.45;3.28;2.92;23.30;23.29;23.24;23.01;20.10;0.51
70299;SPS30;57704;51.112;5.878;2023-02-02T07:29:13;3.62;3.55;3.40;3.05;24.38;24.37;24.33;24.12;21.14;0.51
70299;SPS30;57704;51.112;5.878;2023-02-02T07:31:40;3.46;3.40;3.28;2.97;23.71;23.70;23.67;23.50;20.65;0.49
70299;SPS30;57704;51.112;5.878;2023-02-02T07:34:06;3.39;3.33;3.22;2.91;23.27;23.26;23.23;23.06;20.26;0.49
70299;SPS30;57704;51.112;5.878;2023-02-02T07:36:32;3.48;3.41;3.29;2.97;23.72;23.71;23.68;23.49;20.63;0.49
70299;SPS30;57704;51.112;5.878;2023-02-02T07:39:02;3.31;3.25;3.14;2.84;22.71;22.70;22.67;22.51;19.77;0.49
70299;SPS30;57704;51.112;5.878;2023-02-02T07:41:36;3.76;3.70;3.57;3.24;25.86;25.86;25.82;25.64;22.53;0.49
70299;SPS30;57704;51.112;5.878;2023-02-02T07:44:03;3.47;3.41;3.28;2.96;23.65;23.64;23.60;23.42;20.55;0.48
70299;SPS30;57704;51.112;5.878;2023-02-02T07:46:30;4.26;4.18;4.02;3.62;28.95;28.94;28.90;28.67;25.16;0.50
70299;SPS30;57704;51.112;5.878;2023-02-02T07:48:56;4.16;4.08;3.94;3.56;28.43;28.42;28.38;28.17;24.74;0.51
70299;SPS30;57704;51.112;5.878;2023-02-02T07:51:23;4.04;3.96;3.82;3.46;27.61;27.60;27.56;27.36;24.03;0.51
70299;SPS30;57704;51.112;5.878;2023-02-02T07:53:53;4.07;4.05;3.99;3.71;29.63;29.62;29.60;29.49;26.10;0.47
70299;SPS30;57704;51.112;5.878;2023-02-02T07:56:21;3.32;3.27;3.18;2.91;23.24;23.24;23.21;23.07;20.33;0.48
70299;SPS30;57704;51.112;5.878;2023-02-02T07:58:54;3.56;3.48;3.33;2.98;23.80;23.79;23.75;23.53;20.61;0.49
70299;SPS30;57704;51.112;5.878;2023-02-02T08:01:22;3.40;3.33;3.17;2.83;22.59;22.58;22.54;22.33;19.53;0.51
70299;SPS30;57704;51.112;5.878;2023-02-02T08:03:50;3.19;3.13;3.00;2.70;21.54;21.53;21.50;21.32;18.69;0.49
70299;SPS30;57704;51.112;5.878;2023-02-02T08:06:24;3.23;3.16;3.03;2.71;21.67;21.66;21.63;21.44;18.78;0.50
70299;SPS30;57704;51.112;5.878;2023-02-02T08:08:57;3.43;3.33;3.13;2.73;21.85;21.84;21.79;21.52;18.71;0.51
70299;SPS30;57704;51.112;5.878;2023-02-02T08:11:24;3.26;3.16;2.98;2.61;20.83;20.82;20.78;20.52;17.86;0.52
70299;SPS30;57704;51.112;5.878;2023-02-02T08:13:53;3.43;3.32;3.10;2.67;21.38;21.36;21.31;21.01;18.21;0.53
70299;SPS30;57704;51.112;5.878;2023-02-02T08:16:24;3.00;2.90;2.71;2.35;18.76;18.74;18.70;18.44;15.99;0.52
70299;SPS30;57704;51.112;5.878;2023-02-02T08:18:52;3.21;3.10;2.88;2.47;19.72;19.70;19.65;19.35;16.73;0.52
70299;SPS30;57704;51.112;5.878;2023-02-02T08:21:22;3.60;3.47;3.21;2.75;21.96;21.94;21.88;21.54;18.62;0.52
70299;SPS30;57704;51.112;5.878;2023-02-02T08:23:48;3.49;3.37;3.14;2.70;21.57;21.56;21.51;21.19;18.34;0.53
70299;SPS30;57704;51.112;5.878;2023-02-02T08:28:50;3.72;3.60;3.38;2.94;23.48;23.47;23.42;23.11;20.07;0.51
70299;SPS30;57704;51.112;5.878;2023-02-02T08:31:20;3.24;3.14;2.93;2.54;20.32;20.31;20.26;19.98;17.34;0.51
70299;SPS30;57704;51.112;5.878;2023-02-02T08:33:48;4.08;3.96;3.74;3.28;26.18;26.17;26.11;25.80;22.46;0.52
70299;SPS30;57704;51.112;5.878;2023-02-02T08:36:17;3.71;3.62;3.45;3.07;24.52;24.51;24.46;24.22;21.17;0.50
70299;SPS30;57704;51.112;5.878;2023-02-02T08:38:45;3.65;3.56;3.38;3.00;23.98;23.97;23.92;23.68;20.68;0.52
70299;SPS30;57704;51.112;5.878;2023-02-02T08:41:14;3.27;3.19;3.05;2.73;21.78;21.77;21.74;21.54;18.85;0.51
70299;SPS30;57704;51.112;5.878;2023-02-02T08:43:43;3.52;3.45;3.30;2.96;23.63;23.62;23.59;23.38;20.48;0.51
70299;SPS30;57704;51.112;5.878;2023-02-02T08:46:11;3.98;3.89;3.72;3.33;26.58;26.57;26.52;26.28;23.01;0.50
70299;SPS30;57704;51.112;5.878;2023-02-02T08:48:38;3.64;3.56;3.40;3.04;24.30;24.30;24.26;24.03;21.04;0.47
70299;SPS30;57704;51.112;5.878;2023-02-02T08:51:06;3.75;3.71;3.64;3.37;26.88;26.88;26.86;26.74;23.63;0.46
70299;SPS30;57704;51.112;5.878;2023-02-02T08:53:38;3.51;3.48;3.42;3.17;25.29;25.28;25.26;25.16;22.25;0.47
70299;SPS30;57704;51.112;5.878;2023-02-02T08:56:15;3.35;3.31;3.24;2.98;23.79;23.78;23.76;23.64;20.86;0.47
70299;SPS30;57704;51.112;5.878;2023-02-02T08:58:52;3.37;3.34;3.27;3.02;24.13;24.12;24.10;23.99;21.19;0.47
70299;SPS30;57704;51.112;5.878;2023-02-02T09:01:37;3.52;3.52;3.52;3.33;26.58;26.58;26.57;26.53;23.59;0.44
70299;SPS30;57704;51.112;5.878;2023-02-02T09:07:54;3.11;3.11;3.11;2.94;23.48;23.48;23.47;23.44;20.84;0.45
70299;SPS30;57704;51.112;5.878;2023-02-02T09:11:00;3.85;3.82;3.76;3.49;27.84;27.83;27.81;27.70;24.50;0.47
70299;SPS30;57704;51.112;5.878;2023-02-02T09:16:37;3.44;3.42;3.40;3.18;25.40;25.40;25.39;25.32;22.45;0.46
70299;SPS30;57704;51.112;5.878;2023-02-02T09:19:05;3.08;3.08;3.08;2.92;23.29;23.28;23.28;23.25;20.67;0.43
70299;SPS30;57704;51.112;5.878;2023-02-02T09:21:35;3.40;3.40;3.40;3.22;25.70;25.70;25.69;25.66;22.81;0.43
70299;SPS30;57704;51.112;5.878;2023-02-02T09:24:05;2.93;2.93;2.93;2.77;22.13;22.13;22.13;22.10;19.64;0.45
70299;SPS30;57704;51.112;5.878;2023-02-02T09:26:36;3.19;3.17;3.13;2.92;23.34;23.33;23.32;23.24;20.59;0.47
70299;SPS30;57704;51.112;5.878;2023-02-02T09:29:05;3.44;3.39;3.28;2.98;23.79;23.78;23.75;23.59;20.74;0.48
70299;SPS30;57704;51.112;5.878;2023-02-02T09:31:35;3.18;3.11;2.98;2.68;21.40;21.39;21.36;21.17;18.56;0.49
70299;SPS30;57704;51.112;5.878;2023-02-02T09:34:04;3.05;2.99;2.87;2.58;20.58;20.57;20.54;20.37;17.86;0.49
70299;SPS30;57704;51.112;5.878;2023-02-02T09:36:36;3.03;2.97;2.85;2.55;20.36;20.36;20.32;20.14;17.65;0.52
70299;SPS30;57704;51.112;5.878;2023-02-02T09:39:04;3.23;3.15;3.00;2.67;21.29;21.28;21.24;21.03;18.38;0.52
70299;SPS30;57704;51.112;5.878;2023-02-02T09:55:17;2.80;2.74;2.62;2.34;18.68;18.67;18.64;18.47;16.16;0.53
70299;SPS30;57704;51.112;5.878;2023-02-02T09:58:00;3.13;3.04;2.87;2.53;20.19;20.18;20.14;19.91;17.34;0.54
70299;SPS30;57704;51.112;5.878;2023-02-02T10:03:28;3.24;3.16;3.01;2.66;21.27;21.26;21.22;21.00;18.34;0.50
70299;SPS30;57704;51.112;5.878;2023-02-02T10:06:10;3.23;3.15;2.99;2.65;21.15;21.15;21.11;20.89;18.24;0.52
70299;SPS30;57704;51.112;5.878;2023-02-02T10:09:35;3.20;3.12;2.96;2.61;20.89;20.88;20.84;20.62;17.99;0.51
70299;SPS30;57704;51.112;5.878;2023-02-02T10:11:43;2.88;2.82;2.71;2.43;19.42;19.41;19.38;19.22;16.84;0.49
70299;SPS30;57704;51.112;5.878;2023-02-02T10:14:29;3.05;2.99;2.86;2.56;20.44;20.43;20.40;20.21;17.70;0.51
70299;SPS30;57704;51.112;5.878;2023-02-02T10:17:52;3.58;3.49;3.33;2.96;23.65;23.64;23.60;23.36;20.43;0.51